Time;durP1;ratioP1;P1;durP2;ratioP2;P2;SDS_P1;SDS_P2;PMS_P1;PMS_P2;Temp;Humidity;BMP_temperature;BMP_pressure;BME280_temperature;BME280_humidity;BME280_pressure;Samples;Min_cycle;Max_cycle;Signal;HPM_P1;HPM_P2
2022/06/12 00:01:19;;;;;;;4.80;1.90;;;;;;;19.95;57.07;101367.38;4986156;28;20693;-83
2022/06/12 00:03:46;;;;;;;3.83;1.63;;;;;;;19.94;57.16;101368.38;4987652;28;20303;-85
2022/06/12 00:06:15;;;;;;;2.63;1.67;;;;;;;19.92;57.32;101365.81;4992177;28;20587;-83
2022/06/12 00:08:42;;;;;;;5.13;1.87;;;;;;;19.90;57.13;101367.78;4985420;28;20242;-83
2022/06/12 00:11:11;;;;;;;3.33;1.80;;;;;;;19.88;56.96;101375.22;4987366;28;20234;-83
2022/06/12 00:13:41;;;;;;;4.03;2.13;;;;;;;19.86;57.19;101368.22;4990149;28;20213;-84
2022/06/12 00:16:10;;;;;;;4.47;1.93;;;;;;;19.83;57.22;101372.06;4988410;28;20213;-85
2022/06/12 00:18:37;;;;;;;5.80;1.87;;;;;;;19.81;57.22;101379.44;4983206;28;20201;-82
2022/06/12 00:23:51;;;;;;;4.93;2.10;;;;;;;19.76;56.95;101374.47;4994245;28;20700;-82
2022/06/12 00:26:22;;;;;;;5.07;2.03;;;;;;;19.74;57.07;101367.47;4992543;28;20207;-83
2022/06/12 00:28:56;;;;;;;6.10;1.97;;;;;;;19.71;56.98;101373.16;4991869;28;20256;-83
2022/06/12 00:31:23;;;;;;;5.20;2.10;;;;;;;19.68;57.00;101379.72;4991754;28;20241;-84
2022/06/12 00:33:50;;;;;;;3.93;1.70;;;;;;;19.67;57.05;101375.31;4987685;28;20736;-82
2022/06/12 00:36:16;;;;;;;5.83;1.63;;;;;;;19.66;57.01;101378.13;4986662;28;20705;-84
2022/06/12 00:38:43;;;;;;;2.90;1.70;;;;;;;19.64;56.99;101377.41;4992191;28;20216;-84
2022/06/12 00:41:09;;;;;;;6.77;2.13;;;;;;;19.63;57.02;101381.13;4991241;28;20596;-84
2022/06/12 00:43:37;;;;;;;5.90;2.00;;;;;;;19.60;56.87;101381.38;4989425;28;20206;-84
2022/06/12 00:46:06;;;;;;;6.40;2.40;;;;;;;19.59;57.17;101374.28;4987961;28;20253;-84
2022/06/12 00:48:35;;;;;;;4.27;2.47;;;;;;;19.56;56.98;101375.41;4992893;28;20669;-82
2022/06/12 00:51:08;;;;;;;5.43;1.77;;;;;;;19.53;56.94;101370.25;4988106;28;20231;-82
2022/06/12 00:53:39;;;;;;;5.80;2.17;;;;;;;19.49;57.10;101368.81;4986824;28;20628;-82
2022/06/12 00:56:12;;;;;;;5.47;1.83;;;;;;;19.45;57.32;101372.78;4989912;28;20205;-82
2022/06/12 00:58:42;;;;;;;5.00;2.40;;;;;;;19.43;57.18;101377.47;4994083;28;20195;-84
2022/06/12 01:01:15;;;;;;;5.77;2.00;;;;;;;19.38;57.34;101372.44;4992022;28;20744;-84
2022/06/12 01:09:16;;;;;;;4.70;2.50;;;;;;;19.30;58.04;101388.50;4979109;28;20299;-82
2022/06/12 01:11:54;;;;;;;4.93;2.33;;;;;;;19.27;58.13;101385.22;4984252;28;20323;-82
2022/06/12 01:14:26;;;;;;;6.90;2.13;;;;;;;19.22;58.05;101382.91;4993815;28;20212;-81
2022/06/12 01:16:56;;;;;;;7.17;2.00;;;;;;;19.18;58.20;101378.75;4989669;28;20204;-82
2022/06/12 01:19:28;;;;;;;6.67;2.50;;;;;;;19.12;58.21;101373.06;4982280;28;20212;-85
2022/06/12 01:22:10;;;;;;;5.40;2.40;;;;;;;19.07;58.33;101378.84;4980228;28;20226;-84
2022/06/12 01:25:04;;;;;;;5.17;2.10;;;;;;;19.03;58.20;101382.81;4989534;28;20580;-83
2022/06/12 01:27:51;;;;;;;5.93;2.03;;;;;;;18.98;58.42;101387.78;4978613;28;20201;-85
2022/06/12 01:30:25;;;;;;;5.30;2.20;;;;;;;18.94;58.51;101380.94;4986719;28;20233;-83
2022/06/12 01:33:00;;;;;;;4.67;2.27;;;;;;;18.91;58.71;101375.78;4982484;28;20217;-81
2022/06/12 01:35:35;;;;;;;3.57;1.90;;;;;;;18.86;58.59;101375.31;4986444;28;20736;-82
2022/06/12 01:38:12;;;;;;;4.50;2.07;;;;;;;18.83;58.92;101373.75;4986718;28;20709;-82
2022/06/12 01:40:45;;;;;;;4.13;2.20;;;;;;;18.80;59.05;101374.03;4987276;28;20310;-82
2022/06/12 01:43:17;;;;;;;5.80;2.57;;;;;;;18.76;58.91;101375.28;4986289;28;20350;-82
2022/06/12 01:45:56;;;;;;;5.87;2.50;;;;;;;18.73;59.06;101384.50;4978502;28;20217;-82
2022/06/12 01:48:32;;;;;;;4.70;2.00;;;;;;;18.71;59.06;101372.97;4978704;28;20200;-82
2022/06/12 01:51:09;;;;;;;4.83;1.83;;;;;;;18.68;59.31;101373.22;4981967;28;20280;-83
2022/06/12 01:53:42;;;;;;;5.23;2.40;;;;;;;18.65;59.28;101373.47;4991018;28;20199;-82
2022/06/12 01:56:16;;;;;;;6.07;2.40;;;;;;;18.62;59.47;101368.38;4979551;28;20200;-81
2022/06/12 01:58:53;;;;;;;7.90;2.30;;;;;;;18.60;59.76;101375.75;4985736;28;20210;-82
2022/06/12 02:01:28;;;;;;;5.50;2.53;;;;;;;18.57;59.74;101367.88;4977939;28;20696;-83
2022/06/12 02:04:01;;;;;;;5.37;2.00;;;;;;;18.52;60.04;101370.09;4982799;28;20726;-81
2022/06/12 02:06:32;;;;;;;4.83;2.40;;;;;;;18.49;60.33;101372.19;4979186;28;20630;-82
2022/06/12 02:09:05;;;;;;;7.13;2.80;;;;;;;18.46;60.51;101370.59;4984288;28;20214;-84
2022/06/12 02:14:26;;;;;;;5.57;2.20;;;;;;;18.39;60.81;101381.09;4986199;28;20280;-83
2022/06/12 02:16:58;;;;;;;5.10;2.00;;;;;;;18.35;60.88;101382.31;4987910;28;20211;-81
2022/06/12 02:19:30;;;;;;;5.43;2.63;;;;;;;18.33;61.17;101380.72;4986557;28;20214;-81
2022/06/12 02:22:03;;;;;;;4.80;2.83;;;;;;;18.30;61.35;101380.97;4981717;28;20726;-84
2022/06/12 02:24:33;;;;;;;4.83;2.87;;;;;;;18.25;61.39;101381.41;4982863;28;20204;-84
2022/06/12 02:27:03;;;;;;;6.83;2.90;;;;;;;18.20;61.73;101371.97;4987212;28;20569;-80
2022/06/12 02:29:38;;;;;;;8.20;2.70;;;;;;;18.17;61.77;101369.53;4984509;28;20586;-83
2022/06/12 02:32:14;;;;;;;4.70;2.10;;;;;;;18.12;62.00;101378.00;4985835;28;20216;-82
2022/06/12 02:34:46;;;;;;;5.47;2.47;;;;;;;18.10;62.10;101384.50;4983777;28;20645;-83
2022/06/12 02:37:18;;;;;;;4.60;2.37;;;;;;;18.06;62.40;101381.22;4987353;28;20962;-82
2022/06/12 02:39:51;;;;;;;6.63;3.03;;;;;;;18.03;62.41;101381.47;4986134;28;20206;-81
2022/06/12 02:42:22;;;;;;;5.03;2.50;;;;;;;17.99;62.42;101380.84;4984047;28;20199;-82
2022/06/12 02:44:54;;;;;;;6.83;2.80;;;;;;;17.93;62.65;101381.34;4980853;28;20291;-82
2022/06/12 02:47:25;;;;;;;6.63;2.77;;;;;;;17.88;62.71;101375.50;4980060;28;20214;-82
2022/06/12 02:49:54;;;;;;;9.80;3.17;;;;;;;17.84;63.01;101382.13;4990140;28;20224;-82
2022/06/12 02:52:26;;;;;;;5.63;2.57;;;;;;;17.81;63.24;101379.69;4991136;28;20226;-82
2022/06/12 02:55:08;;;;;;;9.23;3.53;;;;;;;17.77;63.27;101386.28;4982769;28;20207;-80
2022/06/12 02:57:40;;;;;;;7.57;2.70;;;;;;;17.73;63.52;101381.31;4987476;28;20231;-84
2022/06/12 03:00:17;;;;;;;6.13;2.67;;;;;;;17.65;63.65;101372.00;4987765;28;20233;-81
2022/06/12 03:02:51;;;;;;;6.77;3.00;;;;;;;17.61;63.88;101375.03;4987335;28;20206;-81
2022/06/12 03:05:21;;;;;;;7.87;3.00;;;;;;;17.56;64.14;101375.41;4984285;28;20197;-81
2022/06/12 03:07:50;;;;;;;6.23;2.80;;;;;;;17.51;64.44;101372.25;4985930;28;20207;-81
2022/06/12 03:10:20;;;;;;;5.60;2.90;;;;;;;17.48;64.70;101375.19;4978345;28;20606;-83
2022/06/12 03:12:50;;;;;;;7.83;2.90;;;;;;;17.46;65.03;101376.28;4984857;28;20226;-82
2022/06/12 03:15:32;;;;;;;7.77;3.13;;;;;;;17.42;64.96;101374.81;4988110;28;20909;-81
2022/06/12 03:18:01;;;;;;;5.60;2.93;;;;;;;17.40;65.28;101382.16;4983199;28;20808;-81
2022/06/12 03:20:35;;;;;;;10.13;3.57;;;;;;;17.38;65.57;101370.66;4987329;28;20221;-82
2022/06/12 03:23:08;;;;;;;5.53;2.83;;;;;;;17.35;65.69;101374.47;4992924;28;20684;-81
2022/06/12 03:25:41;;;;;;;6.93;2.87;;;;;;;17.33;65.67;101385.34;4988708;28;20226;-83
2022/06/12 03:28:15;;;;;;;4.97;2.80;;;;;;;17.32;65.93;101377.38;4988900;28;20739;-83
2022/06/12 03:30:49;;;;;;;6.00;3.20;;;;;;;17.31;66.04;101383.75;4988685;28;20222;-82
2022/06/12 03:33:24;;;;;;;6.70;2.97;;;;;;;17.28;66.21;101387.53;4991616;28;20333;-83
2022/06/12 03:35:57;;;;;;;10.83;3.63;;;;;;;17.25;66.27;101387.78;4984807;28;20211;-83
2022/06/12 03:38:30;;;;;;;4.10;2.97;;;;;;;17.22;66.25;101387.16;4988763;28;20226;-83
2022/06/12 03:41:08;;;;;;;8.30;3.23;;;;;;;17.20;66.56;101398.06;4989652;28;20254;-83
2022/06/12 03:43:38;;;;;;;6.77;3.20;;;;;;;17.17;66.77;101400.16;4987074;28;20201;-84
2022/06/12 03:46:27;;;;;;;7.33;3.43;;;;;;;17.15;66.96;101399.41;4986620;28;20206;-83
2022/06/12 03:49:01;;;;;;;7.20;3.13;;;;;;;17.12;67.02;101402.34;4984241;28;20552;-83
2022/06/12 03:51:35;;;;;;;5.80;3.10;;;;;;;17.10;66.96;101397.06;4986971;28;20317;-83
2022/06/12 03:54:06;;;;;;;4.93;3.03;;;;;;;17.08;67.25;101406.25;4988678;28;20222;-83
2022/06/12 03:59:26;;;;;;;6.87;3.33;;;;;;;17.06;67.29;101406.38;4982554;28;20233;-82
2022/06/12 04:01:53;;;;;;;8.37;3.10;;;;;;;17.05;67.32;101412.72;4984309;28;20227;-84
2022/06/12 04:04:24;;;;;;;7.47;3.57;;;;;;;17.04;67.64;101402.94;4987435;28;20268;-84
2022/06/12 04:06:54;;;;;;;7.47;3.03;;;;;;;17.02;67.82;101404.88;4987788;28;20579;-83
2022/06/12 04:09:26;;;;;;;6.33;3.07;;;;;;;17.00;67.73;101405.03;4984523;28;20211;-84
2022/06/12 04:11:55;;;;;;;6.47;3.60;;;;;;;17.00;68.08;101398.78;4989924;28;20600;-82
2022/06/12 04:14:26;;;;;;;7.77;3.00;;;;;;;16.99;68.11;101394.38;4987689;28;20615;-84
2022/06/12 04:16:57;;;;;;;5.83;3.40;;;;;;;16.98;68.37;101401.59;4982928;28;20228;-83
2022/06/12 04:19:27;;;;;;;7.20;3.37;;;;;;;16.98;68.50;101398.91;4985813;28;20287;-83
2022/06/12 04:22:01;;;;;;;8.57;3.50;;;;;;;16.96;68.46;101395.47;4983160;28;20305;-83
2022/06/12 04:24:33;;;;;;;9.40;3.53;;;;;;;16.94;68.54;101396.56;4989121;28;20203;-83
2022/06/12 04:27:06;;;;;;;7.40;3.43;;;;;;;16.90;68.68;101387.00;4986930;28;20442;-83
2022/06/12 04:29:36;;;;;;;7.77;3.80;;;;;;;16.89;68.88;101398.75;4993554;28;20206;-82
2022/06/12 04:32:07;;;;;;;9.13;3.50;;;;;;;16.89;68.98;101393.38;4990311;28;20243;-85
2022/06/12 04:34:38;;;;;;;9.40;3.50;;;;;;;16.89;69.07;101398.75;4991535;28;20291;-85
2022/06/12 04:37:12;;;;;;;9.23;3.77;;;;;;;16.88;69.24;101403.28;4991218;28;20556;-84
2022/06/12 04:39:39;;;;;;;9.03;3.87;;;;;;;16.88;69.15;101402.41;4988436;28;20710;-84
2022/06/12 04:42:07;;;;;;;6.13;3.53;;;;;;;16.89;69.24;101406.81;4989787;28;20213;-83
2022/06/12 04:44:34;;;;;;;9.23;3.90;;;;;;;16.88;69.32;101403.28;4982928;28;20664;-84
2022/06/12 04:47:04;;;;;;;9.77;3.40;;;;;;;16.89;69.32;101398.75;4990509;28;20218;-81
2022/06/12 04:49:33;;;;;;;9.63;3.70;;;;;;;16.89;69.32;101398.75;4985256;28;20213;-85
2022/06/12 04:52:03;;;;;;;8.63;3.40;;;;;;;16.90;69.50;101395.09;4989069;28;20308;-85
2022/06/12 04:54:31;;;;;;;7.97;3.27;;;;;;;16.92;69.52;101393.13;4987565;28;20300;-85
2022/06/12 04:56:58;;;;;;;10.37;3.97;;;;;;;16.95;69.44;101396.44;4981320;28;20211;-82
2022/06/12 04:59:26;;;;;;;9.80;3.57;;;;;;;16.97;69.25;101396.34;4988022;28;20210;-85
2022/06/12 05:01:53;;;;;;;8.37;3.63;;;;;;;16.98;69.27;101390.84;4988228;28;20225;-85
2022/06/12 05:04:21;;;;;;;6.70;3.50;;;;;;;17.00;69.25;101393.41;4987748;28;20227;-82
2022/06/12 05:06:49;;;;;;;9.50;4.20;;;;;;;17.02;69.28;101393.28;4990616;28;20846;-85
2022/06/12 05:09:20;;;;;;;10.60;3.57;;;;;;;17.01;69.00;101384.38;4981516;28;20247;-84
2022/06/12 05:11:47;;;;;;;8.83;3.63;;;;;;;17.02;69.36;101398.69;4988179;28;20228;-84
2022/06/12 05:14:14;;;;;;;6.73;3.10;;;;;;;17.04;69.34;101392.16;4984949;28;20231;-83
2022/06/12 05:16:44;;;;;;;9.57;3.90;;;;;;;17.09;69.28;101394.50;4996561;28;20219;-85
2022/06/12 05:19:13;;;;;;;7.77;3.50;;;;;;;17.13;69.52;101396.84;4992669;28;20221;-84
2022/06/12 05:21:41;;;;;;;7.13;3.53;;;;;;;17.19;69.47;101384.75;4992578;28;20238;-84
2022/06/12 05:24:09;;;;;;;14.57;3.93;;;;;;;17.24;69.44;101387.91;4993318;28;20218;-84
2022/06/12 05:26:38;;;;;;;10.47;3.40;;;;;;;17.29;69.46;101386.56;4991475;28;20217;-83
2022/06/12 05:29:08;;;;;;;6.20;3.33;;;;;;;17.37;69.43;101388.66;4984450;28;20203;-83
2022/06/12 05:31:35;;;;;;;6.60;3.43;;;;;;;17.44;69.35;101376.41;4987755;28;20227;-84
2022/06/12 05:34:03;;;;;;;10.57;3.90;;;;;;;17.54;69.13;101381.91;4991955;28;20229;-82
2022/06/12 05:36:30;;;;;;;8.80;3.30;;;;;;;17.60;68.69;101384.09;4984261;28;20215;-82
2022/06/12 05:38:56;;;;;;;9.37;3.80;;;;;;;17.64;68.36;101380.22;4988190;28;21051;-84
2022/06/12 05:41:23;;;;;;;10.57;3.73;;;;;;;17.68;68.75;101381.69;4990736;28;20227;-84
2022/06/12 05:43:51;;;;;;;6.93;3.70;;;;;;;17.75;68.64;101387.41;4987452;28;20218;-84
2022/06/12 05:46:18;;;;;;;8.77;3.80;;;;;;;17.82;68.93;101378.69;4985163;28;20210;-83
2022/06/12 05:48:46;;;;;;;6.93;3.40;;;;;;;17.93;69.03;101384.06;4986949;28;20206;-83
2022/06/12 05:51:15;;;;;;;11.30;4.27;;;;;;;18.03;68.82;101384.16;4987850;28;20238;-83
2022/06/12 05:53:42;;;;;;;13.30;4.10;;;;;;;18.15;69.17;101384.97;4986774;28;20244;-84
2022/06/12 05:56:11;;;;;;;12.13;4.40;;;;;;;18.28;68.70;101385.66;4983615;28;20201;-83
2022/06/12 05:58:38;;;;;;;8.53;3.80;;;;;;;18.41;68.08;101386.34;4989657;28;20208;-84
2022/06/12 06:01:08;;;;;;;8.67;3.97;;;;;;;18.55;67.27;101377.06;4980937;28;20231;-85
2022/06/12 06:03:35;;;;;;;9.17;3.50;;;;;;;18.68;67.50;101384.00;4991517;28;20208;-83
2022/06/12 06:06:02;;;;;;;13.57;4.17;;;;;;;18.85;67.55;101370.91;4998551;28;20200;-83
2022/06/12 06:08:29;;;;;;;10.07;3.83;;;;;;;19.05;66.49;101383.53;4996079;28;20219;-84
2022/06/12 06:10:55;;;;;;;8.17;3.17;;;;;;;19.19;65.27;101379.63;4992162;28;20225;-84
2022/06/12 06:13:22;;;;;;;9.70;3.53;;;;;;;19.35;64.84;101388.94;4995806;28;20224;-84
2022/06/12 06:15:50;;;;;;;9.67;3.90;;;;;;;19.49;64.00;101385.03;4995269;28;20308;-85
2022/06/12 06:18:19;;;;;;;9.83;3.60;;;;;;;19.61;63.17;101392.06;4990242;28;20227;-85
2022/06/12 06:20:47;;;;;;;6.93;3.33;;;;;;;19.73;62.44;101390.09;4976024;28;20582;-84
2022/06/12 06:23:13;;;;;;;7.20;3.23;;;;;;;19.90;62.89;101385.84;4976245;28;20209;-85
2022/06/12 06:25:41;;;;;;;7.30;3.57;;;;;;;20.08;62.50;101378.75;4976355;28;20250;-83
2022/06/12 06:28:09;;;;;;;8.93;3.70;;;;;;;20.28;62.22;101379.63;4976063;28;20222;-83
2022/06/12 06:30:37;;;;;;;14.40;3.77;;;;;;;20.45;61.40;101379.81;4981372;28;20655;-84
2022/06/12 06:33:04;;;;;;;7.27;3.67;;;;;;;20.59;59.96;101381.25;4994487;28;20236;-83
2022/06/12 06:35:32;;;;;;;3.67;2.80;;;;;;;20.71;59.30;101379.22;4991935;28;20227;-84
2022/06/12 06:37:59;;;;;;;7.53;3.00;;;;;;;20.84;58.27;101384.31;4983866;28;20214;-83
2022/06/12 06:40:28;;;;;;;7.07;3.30;;;;;;;20.94;57.90;101383.31;4987697;28;20227;-84
2022/06/12 06:42:54;;;;;;;6.57;2.58;;;;;;;21.07;57.65;101385.69;4994260;28;20202;-85
2022/06/12 06:48:08;;;;;;;7.45;3.05;;;;;;;21.45;56.84;101384.75;4990390;28;20210;-86
2022/06/12 06:50:37;;;;;;;7.03;2.67;;;;;;;21.66;55.78;101387.22;4993054;28;20219;-87
2022/06/12 06:53:04;;;;;;;6.18;2.80;;;;;;;21.78;54.57;101380.56;4987014;28;20234;-85
2022/06/12 06:55:33;;;;;;;5.32;2.80;;;;;;;21.92;54.58;101373.75;4990644;28;20200;-85
2022/06/12 06:58:00;;;;;;;6.47;2.60;;;;;;;22.02;53.38;101374.59;4988691;28;20272;-85
2022/06/12 07:00:30;;;;;;;7.88;2.95;;;;;;;22.14;53.04;101373.34;4992218;28;20234;-83
2022/06/12 07:02:58;;;;;;;6.13;2.90;;;;;;;22.23;52.41;101372.41;4984094;28;20291;-85
2022/06/12 07:05:24;;;;;;;7.32;3.22;;;;;;;22.31;52.30;101368.94;4987905;28;20208;-83
2022/06/12 07:07:52;;;;;;;6.65;2.80;;;;;;;22.39;52.37;101369.84;4984714;28;20195;-84
2022/06/12 07:10:25;;;;;;;7.15;2.60;;;;;;;22.55;52.20;101371.88;4978256;28;20231;-83
2022/06/12 07:12:53;;;;;;;6.05;2.78;;;;;;;22.68;51.07;101375.03;4982216;28;20651;-83
2022/06/12 07:15:20;;;;;;;7.18;2.50;;;;;;;22.80;50.25;101378.34;4978314;28;20827;-84
2022/06/12 07:17:47;;;;;;;8.02;2.38;;;;;;;22.94;50.07;101380.47;4982448;28;20222;-86
2022/06/12 07:20:17;;;;;;;7.28;2.08;;;;;;;23.06;48.14;101367.50;4987490;28;20230;-83
2022/06/12 07:22:44;;;;;;;6.85;2.15;;;;;;;23.12;46.66;101383.16;4993157;28;20294;-84
2022/06/12 07:25:14;;;;;;;7.55;2.28;;;;;;;23.16;45.84;101376.38;4983166;28;20212;-83
2022/06/12 07:27:41;;;;;;;7.47;1.88;;;;;;;23.24;44.62;101375.59;4979989;28;20567;-85
2022/06/12 07:30:11;;;;;;;6.63;1.73;;;;;;;23.31;44.07;101372.03;4982583;28;20227;-85
2022/06/12 07:32:37;;;;;;;8.05;2.03;;;;;;;23.43;44.04;101373.47;4985588;28;20205;-83
2022/06/12 07:35:05;;;;;;;6.55;1.98;;;;;;;23.54;43.29;101365.06;4990015;28;20234;-84
2022/06/12 07:37:32;;;;;;;7.13;1.80;;;;;;;23.65;43.28;101369.31;4984947;28;20258;-84
2022/06/12 07:40:00;;;;;;;6.70;2.30;;;;;;;23.77;42.68;101368.03;4980304;28;20573;-85
2022/06/12 07:42:28;;;;;;;5.13;1.70;;;;;;;23.91;42.98;101368.41;4988368;28;20294;-86
2022/06/12 07:44:54;;;;;;;7.80;2.40;;;;;;;24.01;42.06;101369.94;4987087;28;20211;-85
2022/06/12 07:47:21;;;;;;;6.88;2.22;;;;;;;24.12;42.05;101371.50;4986512;28;20304;-85
2022/06/12 07:49:47;;;;;;;5.63;1.77;;;;;;;24.19;40.92;101370.66;4985785;28;20214;-83
2022/06/12 07:52:15;;;;;;;3.22;1.52;;;;;;;24.21;40.69;101376.78;4984561;28;20209;-83
2022/06/12 07:54:42;;;;;;;9.77;2.38;;;;;;;24.25;40.66;101376.47;4989614;28;20266;-84
2022/06/12 07:57:08;;;;;;;6.28;1.88;;;;;;;24.30;41.29;101374.13;4990619;28;20810;-84
2022/06/12 07:59:36;;;;;;;6.63;1.85;;;;;;;24.36;41.41;101381.63;4985637;28;20208;-83
2022/06/12 08:02:04;;;;;;;6.68;2.08;;;;;;;24.43;41.63;101380.75;4984113;28;20227;-86
2022/06/12 08:04:31;;;;;;;7.10;2.13;;;;;;;24.50;41.18;101383.66;4987744;28;20247;-84
2022/06/12 08:06:57;;;;;;;9.02;2.17;;;;;;;24.57;41.22;101380.06;4992809;28;20213;-83
2022/06/12 08:09:24;;;;;;;6.85;2.15;;;;;;;24.66;41.51;101394.56;4985700;28;20202;-83
2022/06/12 08:11:51;;;;;;;6.55;2.30;;;;;;;24.76;41.69;101391.63;4988117;28;20227;-84
2022/06/12 08:14:20;;;;;;;9.20;2.38;;;;;;;24.89;41.87;101395.56;4989115;28;20257;-84
2022/06/12 08:16:48;;;;;;;6.55;2.15;;;;;;;24.99;41.34;101395.41;4982178;28;20226;-83
2022/06/12 08:22:01;;;;;;;9.68;2.17;;;;;;;25.11;41.20;101395.88;4983945;28;20293;-84
2022/06/12 08:24:28;;;;;;;8.05;2.22;;;;;;;25.10;41.00;101391.44;4988450;28;20222;-85
2022/06/12 08:26:55;;;;;;;7.65;2.28;;;;;;;25.11;40.83;101395.88;4990709;28;20200;-86
2022/06/12 08:29:21;;;;;;;8.80;2.55;;;;;;;25.17;41.15;101393.31;4989442;28;20294;-87
2022/06/12 08:31:53;;;;;;;7.97;2.63;;;;;;;25.31;40.32;101393.63;4989870;28;20238;-85
2022/06/12 08:34:23;;;;;;;8.85;2.55;;;;;;;25.40;40.37;101389.84;4991139;28;20225;-85
2022/06/12 08:36:51;;;;;;;7.03;2.13;;;;;;;25.58;39.89;101390.47;4992336;28;20941;-84
2022/06/12 08:39:18;;;;;;;6.15;2.00;;;;;;;25.72;40.08;101383.44;4987130;28;20287;-86
2022/06/12 08:41:51;;;;;;;7.25;1.90;;;;;;;25.74;39.58;101384.13;4988682;28;20718;-84
2022/06/12 08:44:23;;;;;;;6.70;2.28;;;;;;;25.72;40.13;101383.44;4984610;28;20813;-85
2022/06/12 08:46:57;;;;;;;6.25;2.20;;;;;;;25.64;39.97;101388.91;4984691;28;20250;-83
2022/06/12 08:49:31;;;;;;;6.53;2.25;;;;;;;25.54;40.34;101384.50;4979602;28;20192;-83
2022/06/12 08:52:07;;;;;;;5.10;2.10;;;;;;;25.44;40.22;101385.75;4987389;28;20250;-84
2022/06/12 08:54:41;;;;;;;6.43;2.60;;;;;;;25.35;40.33;101386.78;4982262;28;20220;-87
2022/06/12 08:57:14;;;;;;;6.63;2.35;;;;;;;25.31;40.80;101383.56;4984837;28;20203;-83
2022/06/12 08:59:46;;;;;;;6.20;2.38;;;;;;;25.37;40.68;101374.69;4981311;28;20207;-83
2022/06/12 09:02:19;;;;;;;6.80;2.45;;;;;;;25.49;40.68;101373.28;4989050;28;20689;-83
2022/06/12 09:04:45;;;;;;;5.05;1.67;;;;;;;25.58;40.09;101372.22;4986155;28;20203;-84
2022/06/12 09:07:16;;;;;;;5.40;2.03;;;;;;;25.56;39.31;101363.38;4981684;28;20215;-83
2022/06/12 09:09:52;;;;;;;4.40;1.60;;;;;;;25.58;39.07;101358.59;4986122;28;20200;-83
2022/06/12 09:12:23;;;;;;;4.20;1.63;;;;;;;25.58;38.27;101355.84;4987690;28;20209;-86
2022/06/12 09:15:05;;;;;;;4.20;1.42;;;;;;;25.63;38.29;101363.50;4988389;28;20293;-84
2022/06/12 09:17:44;;;;;;;8.77;1.90;;;;;;;25.66;37.99;101363.16;4984833;28;20195;-83
2022/06/12 09:20:21;;;;;;;5.80;1.40;;;;;;;25.67;37.88;101353.94;4991947;28;20247;-85
2022/06/12 09:22:56;;;;;;;3.85;1.50;;;;;;;25.63;37.93;101355.31;4996134;28;20214;-87
2022/06/12 09:25:29;;;;;;;8.20;2.45;;;;;;;25.67;38.12;101356.69;4998005;28;20212;-86
2022/06/12 09:28:05;;;;;;;6.88;2.30;;;;;;;25.67;37.77;101353.09;4993416;28;20674;-86
2022/06/12 09:30:37;;;;;;;6.13;2.15;;;;;;;25.68;37.42;101352.94;4997643;28;20238;-85
2022/06/12 09:33:15;;;;;;;6.03;2.03;;;;;;;25.69;37.71;101349.16;4998747;28;20234;-86
2022/06/12 09:35:52;;;;;;;7.78;2.20;;;;;;;25.76;37.53;101357.50;4996965;28;20262;-85
2022/06/12 09:38:30;;;;;;;6.05;2.05;;;;;;;25.81;37.21;101353.19;4997636;28;20208;-86
2022/06/12 09:41:07;;;;;;;6.45;1.85;;;;;;;25.90;36.84;101340.34;4995359;28;20223;-86
2022/06/12 09:43:38;;;;;;;4.07;1.70;;;;;;;25.99;36.22;101352.06;4995752;28;20200;-85
2022/06/12 09:46:15;;;;;;;3.83;1.30;;;;;;;26.09;35.63;101342.63;4997994;28;20654;-85
2022/06/12 09:48:59;;;;;;;5.45;1.90;;;;;;;26.15;35.10;101341.91;4993952;28;20215;-84
2022/06/12 09:51:51;;;;;;;8.73;2.30;;;;;;;26.21;35.31;101348.50;5001700;28;20247;-87
2022/06/12 09:54:33;;;;;;;6.13;1.60;;;;;;;26.28;35.04;101346.75;4997794;28;20227;-83
2022/06/12 09:57:06;;;;;;;4.20;1.60;;;;;;;26.29;33.95;101337.56;5002141;28;20725;-84
2022/06/12 09:59:38;;;;;;;5.00;1.63;;;;;;;26.33;34.25;101338.03;4995751;28;20314;-85
2022/06/12 10:02:16;;;;;;;3.72;1.50;;;;;;;26.41;34.43;101332.50;4993752;28;20232;-82
2022/06/12 10:04:51;;;;;;;5.28;1.88;;;;;;;26.47;34.20;101334.50;4983609;28;20575;-82
2022/06/12 10:07:23;;;;;;;4.50;1.40;;;;;;;26.49;33.98;101332.44;4986730;28;20203;-82
2022/06/12 10:09:57;;;;;;;3.30;1.67;;;;;;;26.48;34.21;101317.09;4986469;28;20231;-83
2022/06/12 10:12:28;;;;;;;6.00;2.05;;;;;;;26.54;34.39;101319.06;4979755;28;20203;-83
2022/06/12 10:15:02;;;;;;;5.25;1.83;;;;;;;26.65;34.78;101302.22;4984806;28;20251;-85
2022/06/12 10:17:34;;;;;;;3.65;1.90;;;;;;;26.60;34.04;101304.66;4990460;28;20200;-83
2022/06/12 10:20:08;;;;;;;8.05;2.05;;;;;;;26.56;34.49;101295.97;4990443;28;20216;-82
2022/06/12 10:22:38;;;;;;;6.78;1.90;;;;;;;26.58;34.68;101302.13;4995130;28;20298;-83
2022/06/12 10:25:08;;;;;;;6.18;1.70;;;;;;;26.65;34.06;101302.22;4986781;28;20204;-82
2022/06/12 10:27:44;;;;;;;3.00;1.33;;;;;;;26.73;34.08;101291.19;4987772;28;20224;-83
2022/06/12 10:30:24;;;;;;;5.57;1.73;;;;;;;26.83;34.08;101302.72;4984080;28;20223;-83
2022/06/12 10:32:53;;;;;;;5.28;1.50;;;;;;;26.87;33.03;101297.75;4983855;28;20633;-84
2022/06/12 10:35:24;;;;;;;3.80;1.50;;;;;;;26.92;32.19;101290.66;4985909;28;20230;-83
2022/06/12 10:37:51;;;;;;;4.80;1.58;;;;;;;26.94;32.54;101283.16;4980353;28;20209;-82
2022/06/12 10:40:21;;;;;;;10.00;1.60;;;;;;;27.04;32.82;101290.22;4987045;28;20281;-81
2022/06/12 10:42:53;;;;;;;4.13;1.67;;;;;;;27.07;32.51;101287.09;4989067;28;20811;-82
2022/06/12 10:45:24;;;;;;;6.78;1.80;;;;;;;27.03;32.43;101289.38;4986538;28;20232;-84
2022/06/12 10:47:53;;;;;;;4.80;1.88;;;;;;;26.94;32.36;101283.16;4983923;28;20619;-82
2022/06/12 10:50:26;;;;;;;6.45;1.83;;;;;;;26.91;32.28;101288.09;4985964;28;20860;-82
2022/06/12 10:52:59;;;;;;;6.10;1.95;;;;;;;26.87;32.33;101282.16;4984787;28;20210;-84
2022/06/12 10:55:39;;;;;;;6.80;1.67;;;;;;;26.92;32.44;101274.25;4988458;28;20219;-82
2022/06/12 10:58:20;;;;;;;4.13;1.63;;;;;;;26.94;32.35;101269.47;4986439;28;20203;-81
2022/06/12 11:00:48;;;;;;;4.97;1.67;;;;;;;26.98;32.48;101266.38;4983346;28;20227;-86
2022/06/12 11:03:23;;;;;;;3.83;1.65;;;;;;;27.08;32.77;101264.19;4984705;28;20208;-83
2022/06/12 11:06:03;;;;;;;6.18;1.85;;;;;;;27.14;32.87;101266.16;4994759;28;20195;-83
2022/06/12 11:08:58;;;;;;;6.20;2.10;;;;;;;27.16;32.39;101255.88;4983101;28;20206;-84
2022/06/12 11:11:33;;;;;;;4.40;1.45;;;;;;;27.08;32.62;101264.19;4987959;28;20385;-85
2022/06/12 11:14:13;;;;;;;4.28;1.60;;;;;;;27.06;32.95;101256.16;4986386;28;20195;-83
2022/06/12 11:16:57;;;;;;;5.30;1.80;;;;;;;27.06;32.56;101263.53;4983856;28;20674;-83
2022/06/12 11:19:35;;;;;;;5.57;1.75;;;;;;;27.09;32.70;101268.63;4983116;28;20207;-82
2022/06/12 11:22:19;;;;;;;4.72;1.58;;;;;;;27.11;32.46;101261.06;4990422;28;20730;-82
2022/06/12 11:24:59;;;;;;;6.10;1.95;;;;;;;27.14;32.28;101257.97;4984768;28;20199;-82
2022/06/12 11:27:44;;;;;;;4.68;1.40;;;;;;;27.24;32.70;101247.56;4992148;28;20454;-82
2022/06/12 11:30:22;;;;;;;5.15;1.90;;;;;;;27.33;32.38;101242.84;4986567;28;20232;-82
2022/06/12 11:33:00;;;;;;;4.95;1.90;;;;;;;27.38;32.28;101246.72;4985203;28;20393;-83
2022/06/12 11:35:39;;;;;;;4.22;1.55;;;;;;;27.43;32.02;101241.47;4986477;28;20701;-82
2022/06/12 11:38:21;;;;;;;5.30;1.60;;;;;;;27.47;31.60;101239.22;4992095;28;20206;-84
2022/06/12 11:41:00;;;;;;;4.03;1.50;;;;;;;27.46;31.99;101240.25;4997063;28;20227;-83
2022/06/12 11:43:33;;;;;;;6.00;1.73;;;;;;;27.47;31.78;101251.00;4999330;28;20198;-82
2022/06/12 11:46:12;;;;;;;6.43;1.70;;;;;;;27.49;31.91;101250.81;4993447;28;20195;-84
2022/06/12 11:49:07;;;;;;;3.30;1.40;;;;;;;27.56;31.69;101244.38;4993081;28;20207;-82
2022/06/12 11:51:45;;;;;;;3.50;1.75;;;;;;;27.61;31.50;101238.34;4988788;28;20220;-84
2022/06/12 11:54:31;;;;;;;2.95;1.88;;;;;;;27.69;31.36;101237.38;4989296;28;20217;-84
2022/06/12 11:57:10;;;;;;;4.55;1.63;;;;;;;27.71;31.21;101244.38;4989451;28;20203;-83
2022/06/12 11:59:48;;;;;;;5.47;2.13;;;;;;;27.75;31.24;101231.16;4990434;28;20210;-85
2022/06/12 12:02:42;;;;;;;4.65;1.58;;;;;;;27.81;31.28;101227.59;4990985;28;20581;-82
2022/06/12 12:05:25;;;;;;;4.53;2.03;;;;;;;27.90;31.42;101231.91;4992034;28;20218;-82